Time;durP1;ratioP1;P1;durP2;ratioP2;P2;SDS_P1;SDS_P2;PMS_P1;PMS_P2;Temp;Humidity;BMP_temperature;BMP_pressure;BME280_temperature;BME280_humidity;BME280_pressure;Samples;Min_cycle;Max_cycle;Signal;HPM_P1;HPM_P2
2023/06/02 00:01:14;;;;;;;7.53;3.85;;;;;;;12.39;80.65;98238.53;2600970;28;20045;-84
2023/06/02 00:02:33;;;;;;;6.72;3.92;;;;;;;12.30;81.75;98237.09;2604547;28;20056;-84
2023/06/02 00:03:49;;;;;;;8.50;4.07;;;;;;;12.20;83.32;98239.22;2602156;28;20484;-84
2023/06/02 00:05:05;;;;;;;7.32;4.05;;;;;;;12.09;82.96;98236.16;2602512;28;20045;-85
2023/06/02 00:06:21;;;;;;;8.18;4.25;;;;;;;12.18;82.82;98245.44;2602749;28;20412;-85
2023/06/02 00:07:37;;;;;;;5.75;3.50;;;;;;;12.04;82.21;98235.47;2602296;28;20045;-84
2023/06/02 00:08:53;;;;;;;5.88;3.47;;;;;;;11.90;83.68;98233.31;2600622;28;20052;-86
2023/06/02 00:10:09;;;;;;;6.47;4.18;;;;;;;11.71;87.95;98232.22;2602644;28;20052;-85
2023/06/02 00:11:25;;;;;;;6.57;3.72;;;;;;;11.97;85.24;98233.03;2604131;28;20057;-84
2023/06/02 00:12:40;;;;;;;8.07;4.90;;;;;;;12.14;83.81;98231.56;2603330;28;20041;-84
2023/06/02 00:13:58;;;;;;;5.10;3.25;;;;;;;11.90;86.54;98230.69;2602197;28;20245;-85
2023/06/02 00:15:14;;;;;;;6.68;4.00;;;;;;;12.06;85.90;98236.28;2601242;28;20076;-85
2023/06/02 00:16:32;;;;;;;6.50;3.50;;;;;;;11.77;88.82;98231.16;2602553;28;20049;-85
2023/06/02 00:17:47;;;;;;;7.75;3.70;;;;;;;11.75;89.38;98226.88;2601421;28;20049;-84
2023/06/02 00:19:03;;;;;;;8.45;4.13;;;;;;;11.75;89.42;98229.50;2603066;28;20422;-84
2023/06/02 00:20:20;;;;;;;9.30;4.10;;;;;;;11.75;89.80;98232.97;2602237;28;20064;-87
2023/06/02 00:21:36;;;;;;;7.55;3.50;;;;;;;11.75;87.85;98226.88;2603787;28;20123;-85
2023/06/02 00:22:52;;;;;;;8.27;3.72;;;;;;;11.71;87.72;98228.75;2603439;28;20110;-84
2023/06/02 00:24:08;;;;;;;6.95;4.03;;;;;;;11.77;84.87;98225.91;2604933;28;20090;-85
2023/06/02 00:25:24;;;;;;;7.32;3.80;;;;;;;11.43;90.99;98229.75;2601508;28;20045;-85
2023/06/02 00:26:40;;;;;;;9.05;4.40;;;;;;;11.49;93.65;98228.66;2601786;28;20051;-85
2023/06/02 00:27:56;;;;;;;6.90;3.83;;;;;;;11.57;94.35;98224.00;2592986;28;20445;-85
2023/06/02 00:29:11;;;;;;;7.72;4.40;;;;;;;11.62;94.53;98222.09;2597695;28;20444;-85
2023/06/02 00:30:27;;;;;;;6.45;3.75;;;;;;;11.73;92.30;98230.44;2603341;28;20347;-85
2023/06/02 00:31:42;;;;;;;10.80;4.45;;;;;;;11.84;91.15;98221.28;2603301;28;20041;-85
2023/06/02 00:32:58;;;;;;;9.73;4.22;;;;;;;11.94;90.31;98213.94;2603342;28;20053;-85
2023/06/02 00:34:13;;;;;;;9.88;3.92;;;;;;;11.92;90.40;98221.00;2603010;28;20055;-85
2023/06/02 00:35:29;;;;;;;7.13;4.00;;;;;;;11.51;93.56;98218.97;2601312;28;20143;-85
2023/06/02 00:36:45;;;;;;;8.57;4.00;;;;;;;11.31;96.82;98212.66;2603473;28;20053;-85
2023/06/02 00:38:04;;;;;;;7.22;3.80;;;;;;;11.33;97.73;98215.22;2601409;28;20046;-84
2023/06/02 00:39:19;;;;;;;6.75;3.80;;;;;;;11.67;94.00;98211.44;2603482;28;20048;-85
2023/06/02 00:40:36;;;;;;;6.72;3.70;;;;;;;11.65;92.84;98208.84;2603784;28;20052;-85
2023/06/02 00:41:52;;;;;;;8.55;4.13;;;;;;;11.52;94.47;98204.97;2604666;28;20056;-85
2023/06/02 00:43:08;;;;;;;9.68;3.80;;;;;;;11.51;92.78;98208.50;2601140;28;20132;-85
2023/06/02 00:44:23;;;;;;;6.40;3.70;;;;;;;11.65;91.38;98216.72;2602771;28;20052;-85
2023/06/02 00:45:39;;;;;;;8.90;3.90;;;;;;;11.73;91.83;98208.56;2602504;28;20139;-85
2023/06/02 00:46:56;;;;;;;7.80;3.90;;;;;;;11.66;92.83;98213.19;2603053;28;20073;-85
2023/06/02 00:48:11;;;;;;;7.10;4.00;;;;;;;11.81;91.33;98216.16;2603791;28;20053;-86
2023/06/02 00:49:27;;;;;;;8.50;4.35;;;;;;;11.81;92.25;98206.53;2604466;28;20053;-86
2023/06/02 00:50:42;;;;;;;7.30;3.63;;;;;;;11.87;90.35;98221.16;2604277;28;20076;-85
2023/06/02 00:51:58;;;;;;;6.53;3.70;;;;;;;11.79;92.35;98213.56;2602163;28;20509;-85
2023/06/02 00:53:14;;;;;;;8.63;4.20;;;;;;;11.77;92.15;98219.81;2601042;28;20103;-85
2023/06/02 00:54:30;;;;;;;8.35;4.10;;;;;;;11.72;92.97;98209.47;2601573;28;20046;-85
2023/06/02 00:55:46;;;;;;;8.13;4.32;;;;;;;11.81;91.45;98210.91;2603033;28;20041;-84
2023/06/02 00:57:02;;;;;;;7.57;3.92;;;;;;;11.63;92.57;98212.44;2603708;28;20378;-84
2023/06/02 00:58:19;;;;;;;7.65;4.07;;;;;;;11.65;93.34;98210.59;2601800;28;20048;-84
2023/06/02 00:59:36;;;;;;;6.60;4.25;;;;;;;11.51;91.94;98211.94;2602035;28;20394;-84
2023/06/02 01:00:54;;;;;;;8.95;3.60;;;;;;;11.49;94.12;98218.19;2603582;28;20132;-85
2023/06/02 01:02:10;;;;;;;6.18;4.05;;;;;;;11.57;93.47;98211.75;2602404;28;20042;-85
2023/06/02 01:03:26;;;;;;;9.27;3.95;;;;;;;11.50;94.80;98210.25;2603757;28;20654;-85
2023/06/02 01:04:44;;;;;;;7.53;3.85;;;;;;;11.48;93.41;98217.31;2602129;28;20057;-85
2023/06/02 01:06:02;;;;;;;8.43;4.53;;;;;;;11.28;97.63;98218.00;2604350;28;20576;-84
2023/06/02 01:07:23;;;;;;;9.93;4.40;;;;;;;11.24;99.56;98216.41;2601899;28;20062;-86
2023/06/02 01:08:40;;;;;;;7.05;4.10;;;;;;;11.36;97.63;98215.13;2601243;28;20588;-86
2023/06/02 01:10:00;;;;;;;9.43;4.57;;;;;;;11.34;95.93;98211.69;2601552;28;20084;-85
2023/06/02 01:11:16;;;;;;;6.30;3.90;;;;;;;11.34;94.66;98215.19;2601881;28;20108;-85
2023/06/02 01:12:32;;;;;;;7.05;4.28;;;;;;;11.15;96.95;98210.56;2590393;28;20088;-85
2023/06/02 01:13:48;;;;;;;6.40;4.15;;;;;;;11.11;96.01;98211.59;2594921;28;20069;-85
2023/06/02 01:15:05;;;;;;;7.40;3.75;;;;;;;11.06;96.88;98212.66;2603273;28;20160;-85
2023/06/02 01:16:20;;;;;;;6.60;3.92;;;;;;;11.11;97.41;98213.38;2604134;28;20489;-86
2023/06/02 01:17:38;;;;;;;7.22;4.03;;;;;;;11.13;98.71;98214.16;2601672;28;20532;-85
2023/06/02 01:18:53;;;;;;;10.68;4.60;;;;;;;11.19;99.07;98218.34;2601956;28;20065;-85
2023/06/02 01:20:10;;;;;;;9.52;3.97;;;;;;;11.02;99.70;98215.38;2601827;28;20057;-85
2023/06/02 01:21:30;;;;;;;7.32;3.90;;;;;;;10.84;100.00;98206.34;2602133;28;20053;-85
2023/06/02 01:22:57;;;;;;;7.30;4.10;;;;;;;10.94;100.00;98209.53;2602978;28;20128;-85
2023/06/02 01:24:14;;;;;;;8.07;4.28;;;;;;;11.05;98.66;98210.94;2604116;28;20141;-85
2023/06/02 01:25:30;;;;;;;7.18;3.67;;;;;;;11.05;99.51;98210.94;2602156;28;21017;-86
2023/06/02 01:26:46;;;;;;;11.40;3.85;;;;;;;11.06;100.00;98213.50;2602927;28;20045;-85
2023/06/02 01:28:02;;;;;;;6.75;3.75;;;;;;;11.14;99.33;98215.88;2601866;28;20060;-85
2023/06/02 01:29:18;;;;;;;8.43;4.00;;;;;;;11.19;98.14;98219.19;2603643;28;20053;-85
2023/06/02 01:30:34;;;;;;;8.05;4.45;;;;;;;11.24;98.70;98217.25;2591629;28;20054;-85
2023/06/02 01:31:55;;;;;;;8.13;4.68;;;;;;;11.28;97.49;98218.88;2595375;28;20128;-85
2023/06/02 01:33:26;;;;;;;8.27;3.97;;;;;;;11.27;99.81;98216.28;2604348;28;20096;-85
2023/06/02 01:34:48;;;;;;;8.98;3.88;;;;;;;11.16;100.00;98220.13;2605424;28;20057;-85
2023/06/02 01:36:03;;;;;;;8.90;4.30;;;;;;;11.12;99.36;98223.78;2604892;28;20076;-85
2023/06/02 01:37:20;;;;;;;8.60;4.35;;;;;;;11.16;100.00;98224.53;2603523;28;20781;-85
2023/06/02 01:38:38;;;;;;;8.75;4.43;;;;;;;11.19;98.85;98223.59;2604760;28;20045;-85
2023/06/02 01:39:54;;;;;;;7.32;4.35;;;;;;;10.98;99.47;98216.41;2603450;28;20488;-85
2023/06/02 01:41:13;;;;;;;6.65;3.90;;;;;;;10.70;100.00;98226.91;2605583;28;20053;-85
2023/06/02 01:42:28;;;;;;;7.45;3.90;;;;;;;10.87;100.00;98223.75;2603508;28;20151;-85
2023/06/02 01:43:45;;;;;;;6.28;4.13;;;;;;;10.62;100.00;98221.91;2602709;28;20053;-85
2023/06/02 01:45:02;;;;;;;6.05;3.17;;;;;;;10.23;100.00;98220.47;2603025;28;20053;-85
2023/06/02 01:46:18;;;;;;;7.90;4.55;;;;;;;10.03;100.00;98210.59;2605164;28;20053;-85
2023/06/02 01:47:34;;;;;;;6.60;3.85;;;;;;;10.07;100.00;98216.59;2602994;28;20075;-85
2023/06/02 01:48:53;;;;;;;8.63;4.13;;;;;;;10.28;100.00;98220.31;2606129;28;20100;-85
2023/06/02 01:50:09;;;;;;;7.72;4.00;;;;;;;10.32;100.00;98221.94;2603669;28;20081;-85
2023/06/02 01:51:25;;;;;;;7.68;3.95;;;;;;;10.37;100.00;98221.78;2605549;28;20056;-85
2023/06/02 01:52:40;;;;;;;7.43;4.50;;;;;;;10.45;100.00;98219.81;2604174;28;20524;-85
2023/06/02 01:53:56;;;;;;;7.68;4.10;;;;;;;10.74;100.00;98215.41;2593127;28;20729;-85
2023/06/02 01:55:11;;;;;;;8.73;4.30;;;;;;;10.76;100.00;98220.63;2595536;28;20049;-85
2023/06/02 01:56:27;;;;;;;8.32;4.28;;;;;;;10.59;100.00;98222.84;2603209;28;20083;-85
2023/06/02 01:57:43;;;;;;;7.60;4.20;;;;;;;10.82;100.00;98218.66;2593053;28;20069;-85
2023/06/02 01:58:58;;;;;;;9.35;4.35;;;;;;;10.90;100.00;98215.78;2597561;28;20044;-85
2023/06/02 02:00:14;;;;;;;9.88;4.53;;;;;;;10.94;100.00;98220.00;2604902;28;20081;-85
2023/06/02 02:01:30;;;;;;;6.93;4.43;;;;;;;10.94;100.00;98213.94;2605128;28;20056;-85
2023/06/02 02:02:46;;;;;;;6.65;4.10;;;;;;;10.81;100.00;98216.94;2603211;28;20350;-85
2023/06/02 02:04:02;;;;;;;6.50;3.95;;;;;;;10.78;100.00;98224.91;2603717;28;20053;-85
2023/06/02 02:05:18;;;;;;;8.20;4.35;;;;;;;10.63;100.00;98221.00;2602672;28;20504;-85
2023/06/02 02:06:34;;;;;;;9.32;4.78;;;;;;;10.60;100.00;98229.81;2605843;28;20515;-85
2023/06/02 02:07:50;;;;;;;7.85;4.10;;;;;;;10.48;100.00;98217.13;2602730;28;20064;-85
2023/06/02 02:09:07;;;;;;;9.43;4.40;;;;;;;10.27;100.00;98219.44;2604055;28;20665;-85
2023/06/02 02:10:23;;;;;;;8.25;4.28;;;;;;;10.23;100.00;98225.69;2602538;28;20492;-84
2023/06/02 02:11:38;;;;;;;8.23;3.60;;;;;;;10.17;100.00;98220.63;2604499;28;20119;-85
2023/06/02 02:12:54;;;;;;;9.15;4.15;;;;;;;10.23;100.00;98215.22;2605699;28;20080;-85
2023/06/02 02:14:13;;;;;;;6.00;3.78;;;;;;;10.41;100.00;98218.22;2606392;28;20049;-85
2023/06/02 02:15:28;;;;;;;8.18;4.28;;;;;;;10.48;100.00;98214.50;2593757;28;20050;-85
2023/06/02 02:16:45;;;;;;;7.57;3.97;;;;;;;10.62;100.00;98224.53;2597352;28;20525;-85
2023/06/02 02:18:03;;;;;;;7.05;4.13;;;;;;;10.66;100.00;98228.75;2595503;28;20065;-85
2023/06/02 02:19:22;;;;;;;7.88;4.53;;;;;;;10.69;100.00;98227.81;2601537;28;20053;-85
2023/06/02 02:20:42;;;;;;;8.52;4.72;;;;;;;10.76;100.00;98225.84;2602530;28;20077;-85
2023/06/02 02:21:58;;;;;;;8.13;4.32;;;;;;;10.79;100.00;98226.63;2605850;28;20053;-85
2023/06/02 02:23:13;;;;;;;7.15;3.83;;;;;;;10.81;100.00;98222.19;2603559;28;20049;-85
2023/06/02 02:24:31;;;;;;;6.72;3.92;;;;;;;10.83;100.00;98230.00;2602495;28;20050;-85
2023/06/02 02:25:47;;;;;;;6.43;3.35;;;;;;;10.83;100.00;98225.59;2603029;28;20618;-85
2023/06/02 02:27:02;;;;;;;7.22;4.15;;;;;;;10.79;100.00;98231.84;2603003;28;20060;-85
2023/06/02 02:28:18;;;;;;;6.28;3.90;;;;;;;10.82;100.00;98229.13;2606128;28;20053;-85
2023/06/02 02:29:36;;;;;;;6.80;3.72;;;;;;;10.79;100.00;98233.59;2605260;28;20485;-85
2023/06/02 02:30:51;;;;;;;5.90;3.53;;;;;;;10.79;100.00;98225.75;2606128;28;20151;-85
2023/06/02 02:32:07;;;;;;;7.45;3.88;;;;;;;10.78;100.00;98227.53;2606342;28;20048;-85
2023/06/02 02:33:23;;;;;;;8.77;3.97;;;;;;;10.77;100.00;98230.19;2604847;28;20050;-85
2023/06/02 02:34:38;;;;;;;8.70;3.65;;;;;;;10.65;100.00;98229.66;2604133;28;20488;-85
2023/06/02 02:35:54;;;;;;;6.70;4.03;;;;;;;10.47;100.00;98231.09;2604595;28;21431;-85
2023/06/02 02:37:10;;;;;;;7.60;4.00;;;;;;;10.36;100.00;98231.41;2604123;28;20058;-85
2023/06/02 02:38:26;;;;;;;9.05;4.15;;;;;;;10.11;100.00;98239.97;2604233;28;20057;-84
2023/06/02 02:39:42;;;;;;;7.50;3.90;;;;;;;10.10;100.00;98234.81;2605703;28;20077;-85
2023/06/02 02:40:57;;;;;;;6.63;4.40;;;;;;;10.10;100.00;98238.25;2604078;28;20049;-85
2023/06/02 02:42:13;;;;;;;10.43;4.03;;;;;;;10.00;100.00;98240.28;2605081;28;20942;-85
2023/06/02 02:43:29;;;;;;;9.95;4.38;;;;;;;9.69;100.00;98246.41;2603942;28;20063;-86
2023/06/02 02:44:45;;;;;;;7.05;4.15;;;;;;;9.63;100.00;98241.31;2604426;28;20052;-85
2023/06/02 02:46:00;;;;;;;10.40;4.22;;;;;;;9.56;100.00;98245.00;2604645;28;20052;-85
2023/06/02 02:47:17;;;;;;;9.68;3.95;;;;;;;9.70;100.00;98247.25;2603330;28;20136;-85
2023/06/02 02:48:33;;;;;;;8.13;4.03;;;;;;;9.72;100.00;98246.31;2603802;28;20136;-85
2023/06/02 02:49:49;;;;;;;7.25;3.80;;;;;;;9.69;100.00;98246.41;2603135;28;20128;-85
2023/06/02 02:51:05;;;;;;;6.53;3.83;;;;;;;9.88;100.00;98254.59;2603800;28;20049;-85
2023/06/02 02:52:21;;;;;;;8.75;4.50;;;;;;;10.08;100.00;98254.91;2603640;28;20112;-85
2023/06/02 02:53:37;;;;;;;10.32;4.45;;;;;;;10.10;100.00;98248.72;2604087;28;20073;-85
2023/06/02 02:54:53;;;;;;;7.93;4.25;;;;;;;10.13;100.00;98248.66;2602208;28;20052;-85
2023/06/02 02:56:08;;;;;;;8.35;4.38;;;;;;;10.11;100.00;98254.81;2604474;28;20049;-85
2023/06/02 02:57:24;;;;;;;8.55;4.18;;;;;;;10.16;100.00;98256.41;2605669;28;20511;-85
2023/06/02 02:58:40;;;;;;;7.85;4.07;;;;;;;9.85;100.00;98251.19;2604977;28;20072;-85
2023/06/02 02:59:55;;;;;;;5.75;3.40;;;;;;;9.65;100.00;98251.75;2602650;28;20052;-85
2023/06/02 03:01:15;;;;;;;8.15;3.85;;;;;;;9.56;100.00;98258.09;2594344;28;21043;-85
2023/06/02 03:02:32;;;;;;;6.85;4.10;;;;;;;9.59;100.00;98258.88;2598126;28;20045;-85
2023/06/02 03:03:47;;;;;;;10.70;4.35;;;;;;;9.67;100.00;98260.41;2602010;28;20056;-85
2023/06/02 03:05:05;;;;;;;7.05;4.13;;;;;;;9.68;100.00;98262.09;2604993;28;20048;-85
2023/06/02 03:06:22;;;;;;;7.95;4.50;;;;;;;9.83;100.00;98256.44;2602221;28;20152;-86
2023/06/02 03:07:39;;;;;;;12.38;4.78;;;;;;;9.88;100.00;98253.72;2602316;28;20097;-85
2023/06/02 03:08:55;;;;;;;8.25;4.20;;;;;;;9.93;100.00;98256.22;2593163;28;20049;-85
2023/06/02 03:10:11;;;;;;;8.75;4.43;;;;;;;9.73;100.00;98266.31;2598408;28;20064;-85
2023/06/02 03:11:26;;;;;;;11.40;4.50;;;;;;;9.65;100.00;98260.47;2604503;28;20843;-86
2023/06/02 03:12:42;;;;;;;7.72;3.95;;;;;;;9.81;100.00;98260.88;2604416;28;20052;-85
2023/06/02 03:13:58;;;;;;;8.80;4.78;;;;;;;9.79;100.00;98260.06;2605654;28;20081;-84
2023/06/02 03:15:13;;;;;;;9.40;4.60;;;;;;;9.74;100.00;98252.34;2602626;28;20100;-85
2023/06/02 03:16:29;;;;;;;8.70;4.28;;;;;;;9.88;100.00;98253.72;2603472;28;20099;-84
2023/06/02 03:17:45;;;;;;;7.45;3.92;;;;;;;9.85;100.00;98253.81;2602574;28;20080;-85
2023/06/02 03:19:02;;;;;;;9.48;4.68;;;;;;;9.92;100.00;98254.50;2602847;28;20052;-85
2023/06/02 03:20:18;;;;;;;6.97;4.32;;;;;;;9.98;100.00;98255.19;2603811;28;20057;-85
2023/06/02 03:21:41;;;;;;;8.00;4.40;;;;;;;10.03;100.00;98255.88;2602526;28;20571;-84
2023/06/02 03:22:57;;;;;;;8.65;4.65;;;;;;;10.13;100.00;98248.66;2604538;28;20052;-85
2023/06/02 03:24:15;;;;;;;6.53;4.28;;;;;;;10.11;100.00;98250.44;2604382;28;20053;-84
2023/06/02 03:25:31;;;;;;;9.25;4.47;;;;;;;10.12;100.00;98252.16;2604445;28;20220;-84
2023/06/02 03:26:48;;;;;;;10.57;4.60;;;;;;;10.11;100.00;98257.44;2606130;28;20049;-85
2023/06/02 03:28:04;;;;;;;7.60;4.15;;;;;;;10.10;100.00;98259.19;2604085;28;20516;-85
2023/06/02 03:29:20;;;;;;;7.50;4.75;;;;;;;9.95;100.00;98264.84;2604755;28;20073;-85
2023/06/02 03:30:35;;;;;;;10.25;4.53;;;;;;;9.94;100.00;98264.03;2602853;28;20424;-84
2023/06/02 03:31:53;;;;;;;9.70;4.38;;;;;;;10.07;100.00;98258.44;2605288;28;20125;-84
2023/06/02 03:33:09;;;;;;;8.65;4.63;;;;;;;10.18;100.00;98261.56;2602456;28;20052;-84
2023/06/02 03:34:24;;;;;;;8.45;4.47;;;;;;;10.27;100.00;98256.09;2603386;28;20052;-85
2023/06/02 03:35:40;;;;;;;7.97;4.57;;;;;;;10.29;100.00;98263.91;2602780;28;20052;-84
2023/06/02 03:36:56;;;;;;;8.07;4.30;;;;;;;10.38;100.00;98254.91;2602972;28;20045;-84
2023/06/02 03:38:12;;;;;;;7.32;4.10;;;;;;;10.38;100.00;98254.91;2602633;28;20053;-84
2023/06/02 03:39:27;;;;;;;8.40;4.53;;;;;;;10.40;100.00;98253.09;2602884;28;20052;-85
2023/06/02 03:40:44;;;;;;;9.48;4.63;;;;;;;10.16;100.00;98255.53;2601645;28;20053;-83
2023/06/02 03:42:00;;;;;;;8.70;3.90;;;;;;;10.12;100.00;98253.91;2605309;28;20052;-84
2023/06/02 03:43:15;;;;;;;9.80;4.80;;;;;;;10.28;100.00;98256.94;2602452;28;20049;-84
2023/06/02 03:44:31;;;;;;;10.45;4.50;;;;;;;10.22;100.00;98265.84;2604254;28;20060;-85
2023/06/02 03:45:47;;;;;;;10.68;4.40;;;;;;;10.18;100.00;98261.56;2604627;28;20045;-85
2023/06/02 03:47:02;;;;;;;7.78;4.18;;;;;;;10.20;100.00;98261.53;2605335;28;20064;-85
2023/06/02 03:48:18;;;;;;;11.25;4.68;;;;;;;10.32;100.00;98269.03;2604076;28;21074;-85
2023/06/02 03:49:36;;;;;;;8.25;4.25;;;;;;;10.14;100.00;98262.56;2605560;28;20420;-85
2023/06/02 03:50:51;;;;;;;7.65;4.45;;;;;;;10.06;100.00;98265.41;2604078;28;20057;-85
2023/06/02 03:52:07;;;;;;;8.30;4.25;;;;;;;10.10;100.00;98267.03;2593110;28;20101;-85
2023/06/02 03:53:22;;;;;;;7.35;4.38;;;;;;;10.17;100.00;98268.59;2597557;28;20050;-84
2023/06/02 03:54:38;;;;;;;7.82;4.28;;;;;;;10.41;100.00;98270.53;2602642;28;20048;-85
2023/06/02 03:55:54;;;;;;;6.45;4.35;;;;;;;10.36;100.00;98268.03;2602355;28;20056;-85
2023/06/02 03:57:09;;;;;;;6.15;3.78;;;;;;;10.19;100.00;98268.53;2603198;28;20523;-88
2023/06/02 03:58:26;;;;;;;7.00;4.15;;;;;;;10.54;100.00;98277.13;2604318;28;20048;-85
2023/06/02 03:59:42;;;;;;;8.48;4.43;;;;;;;10.59;100.00;98275.22;2603490;28;20124;-84
2023/06/02 04:00:58;;;;;;;10.48;4.20;;;;;;;10.45;100.00;98278.25;2604508;28;20052;-85
2023/06/02 04:02:13;;;;;;;9.80;4.47;;;;;;;10.38;100.00;98278.47;2603262;28;21057;-89
2023/06/02 04:03:32;;;;;;;8.30;4.38;;;;;;;10.41;100.00;98281.00;2601727;28;20092;-85
2023/06/02 04:04:47;;;;;;;9.52;4.38;;;;;;;10.70;100.00;98285.38;2605215;28;20713;-85
2023/06/02 04:06:07;;;;;;;8.73;4.20;;;;;;;10.74;100.00;98288.72;2603909;28;20055;-85
2023/06/02 04:07:26;;;;;;;9.18;4.30;;;;;;;10.74;100.00;98286.97;2604478;28;20107;-85
2023/06/02 04:08:42;;;;;;;7.20;4.00;;;;;;;10.81;100.00;98292.88;2603142;28;20053;-85
2023/06/02 04:09:57;;;;;;;9.77;4.78;;;;;;;10.82;100.00;98291.97;2602704;28;20627;-85
2023/06/02 04:11:13;;;;;;;8.23;4.40;;;;;;;10.78;100.00;98287.75;2603875;28;20138;-85
2023/06/02 04:12:28;;;;;;;6.38;4.07;;;;;;;10.67;100.00;98289.84;2605293;28;20045;-85
2023/06/02 04:13:44;;;;;;;11.18;5.00;;;;;;;10.77;100.00;98293.91;2604261;28;21169;-85
2023/06/02 04:15:00;;;;;;;7.45;4.72;;;;;;;10.74;100.00;98286.97;2603673;28;20053;-87
2023/06/02 04:16:15;;;;;;;11.05;4.53;;;;;;;10.87;100.00;98294.47;2602684;28;20075;-88
2023/06/02 04:17:31;;;;;;;8.77;4.75;;;;;;;10.92;100.00;98300.41;2602297;28;20103;-87
2023/06/02 04:18:47;;;;;;;11.35;5.03;;;;;;;10.97;100.00;98297.63;2603661;28;20049;-88
2023/06/02 04:20:03;;;;;;;11.88;4.75;;;;;;;10.86;100.00;98300.59;2601570;28;20056;-85
2023/06/02 04:21:18;;;;;;;9.27;4.68;;;;;;;10.96;100.00;98302.00;2603026;28;20548;-87
2023/06/02 04:22:34;;;;;;;8.05;5.00;;;;;;;11.12;100.00;98299.75;2601700;28;20394;-86
2023/06/02 04:23:50;;;;;;;10.82;4.82;;;;;;;11.06;100.00;98304.34;2604349;28;20088;-85
2023/06/02 04:25:06;;;;;;;8.32;4.70;;;;;;;11.00;100.00;98297.53;2602380;28;20432;-86
2023/06/02 04:26:21;;;;;;;13.48;5.35;;;;;;;11.04;100.00;98299.16;2602873;28;20080;-85
2023/06/02 04:27:37;;;;;;;6.97;4.82;;;;;;;11.08;100.00;98300.78;2603278;28;20068;-85
2023/06/02 04:28:52;;;;;;;8.68;4.78;;;;;;;11.15;100.00;98298.81;2605211;28;20072;-85
2023/06/02 04:30:08;;;;;;;7.65;5.05;;;;;;;11.12;100.00;98302.38;2603323;28;20053;-86
2023/06/02 04:31:47;;;;;;;10.70;5.18;;;;;;;11.37;100.00;98309.44;2601731;28;20398;-85
2023/06/02 04:33:03;;;;;;;10.93;5.07;;;;;;;11.44;100.00;98304.84;2604573;28;20520;-86
2023/06/02 04:34:19;;;;;;;10.70;5.60;;;;;;;11.52;100.00;98307.22;2600126;28;20754;-88
2023/06/02 04:35:37;;;;;;;8.98;5.20;;;;;;;11.40;100.00;98305.88;2600898;28;20053;-86
2023/06/02 04:36:53;;;;;;;13.25;5.20;;;;;;;11.51;100.00;98303.72;2603648;28;20563;-86
2023/06/02 04:38:09;;;;;;;9.57;5.28;;;;;;;11.62;100.00;98300.75;2601781;28;20152;-86
2023/06/02 04:39:25;;;;;;;8.75;4.90;;;;;;;11.67;100.00;98301.44;2604562;28;20045;-86
2023/06/02 04:40:42;;;;;;;10.07;4.85;;;;;;;11.58;100.00;98300.00;2604465;28;20106;-87
2023/06/02 04:41:58;;;;;;;10.05;5.68;;;;;;;11.46;100.00;98304.81;2603183;28;20045;-86
2023/06/02 04:43:14;;;;;;;7.32;5.10;;;;;;;11.67;100.00;98300.59;2603214;28;21027;-86
2023/06/02 04:44:30;;;;;;;9.60;4.88;;;;;;;11.50;100.00;98302.00;2601823;28;20654;-86
2023/06/02 04:45:47;;;;;;;10.10;4.90;;;;;;;11.58;100.00;98299.13;2602827;28;20037;-86
2023/06/02 04:47:02;;;;;;;11.73;5.05;;;;;;;11.62;100.00;98299.88;2601787;28;20060;-87
2023/06/02 04:48:18;;;;;;;10.70;5.07;;;;;;;11.77;100.00;98293.25;2603700;28;20436;-86
2023/06/02 04:49:33;;;;;;;9.48;5.00;;;;;;;11.91;100.00;98298.88;2604283;28;20049;-86
2023/06/02 04:50:49;;;;;;;8.07;4.75;;;;;;;11.88;100.00;98304.22;2601570;28;20092;-86
2023/06/02 04:52:08;;;;;;;9.20;4.88;;;;;;;12.03;100.00;98294.97;2602274;28;20516;-86
2023/06/02 04:53:23;;;;;;;7.50;4.90;;;;;;;12.14;100.00;98302.44;2602930;28;20571;-85
2023/06/02 04:54:39;;;;;;;7.28;4.75;;;;;;;12.32;100.00;98306.16;2602323;28;20052;-84
2023/06/02 04:55:56;;;;;;;11.05;5.53;;;;;;;12.23;100.00;98309.97;2592805;28;20469;-84
2023/06/02 04:57:12;;;;;;;10.90;5.18;;;;;;;12.15;100.00;98304.16;2596135;28;20045;-86
2023/06/02 04:58:27;;;;;;;8.38;5.03;;;;;;;12.27;100.00;98301.06;2602134;28;20049;-85
2023/06/02 04:59:43;;;;;;;9.68;5.30;;;;;;;12.35;100.00;98305.19;2604082;28;20451;-84
2023/06/02 05:00:59;;;;;;;10.95;5.45;;;;;;;12.46;100.00;98302.16;2603419;28;20505;-85
2023/06/02 05:02:15;;;;;;;8.43;5.30;;;;;;;12.35;100.00;98302.56;2602955;28;20405;-85
2023/06/02 05:03:30;;;;;;;8.73;5.30;;;;;;;12.37;100.00;98304.22;2591290;28;20052;-85
2023/06/02 05:04:45;;;;;;;12.23;5.97;;;;;;;12.35;100.00;98303.41;2595264;28;20046;-86
2023/06/02 05:06:02;;;;;;;9.00;4.82;;;;;;;12.50;100.00;98301.13;2600265;28;20100;-86
2023/06/02 05:07:18;;;;;;;11.25;5.70;;;;;;;12.65;100.00;98313.69;2605030;28;20061;-86
2023/06/02 05:08:33;;;;;;;12.25;5.60;;;;;;;12.75;100.00;98302.81;2605129;28;20130;-86
2023/06/02 05:09:49;;;;;;;13.07;7.00;;;;;;;12.65;100.00;98308.44;2606841;28;20493;-85
2023/06/02 05:11:08;;;;;;;11.07;5.32;;;;;;;12.67;100.00;98309.22;2595668;28;20108;-86
2023/06/02 05:12:25;;;;;;;10.55;5.63;;;;;;;12.64;100.00;98317.22;2599326;28;20501;-85
2023/06/02 05:13:40;;;;;;;6.25;3.72;;;;;;;12.62;100.00;98307.69;2605212;28;20132;-85
2023/06/02 05:14:56;;;;;;;10.88;5.85;;;;;;;12.85;100.00;98309.41;2607176;28;20140;-85
2023/06/02 05:16:12;;;;;;;10.77;5.00;;;;;;;12.83;100.00;98316.50;2605270;28;20052;-85
2023/06/02 05:17:28;;;;;;;8.55;4.90;;;;;;;13.13;100.00;98318.81;2605732;28;20056;-86
2023/06/02 05:18:43;;;;;;;9.45;5.40;;;;;;;13.24;100.00;98315.75;2606943;28;20053;-85
2023/06/02 05:19:59;;;;;;;9.95;5.32;;;;;;;12.78;100.00;98315.81;2604858;28;20344;-85
2023/06/02 05:21:15;;;;;;;9.15;5.25;;;;;;;12.94;100.00;98324.81;2606177;28;20052;-85
2023/06/02 05:22:30;;;;;;;11.90;5.57;;;;;;;13.19;100.00;98322.97;2604255;28;20053;-85
2023/06/02 05:23:46;;;;;;;9.10;4.75;;;;;;;13.13;100.00;98324.06;2607540;28;20081;-85
2023/06/02 05:25:02;;;;;;;9.80;5.45;;;;;;;13.30;100.00;98317.28;2608021;28;20041;-85
2023/06/02 05:26:18;;;;;;;13.13;6.22;;;;;;;13.45;100.00;98323.72;2606485;28;20049;-85
2023/06/02 05:27:33;;;;;;;11.32;6.00;;;;;;;13.71;100.00;98309.44;2604448;28;20487;-85
2023/06/02 05:28:50;;;;;;;9.10;5.43;;;;;;;13.41;100.00;98318.56;2604667;28;20041;-84
2023/06/02 05:30:06;;;;;;;9.48;5.55;;;;;;;13.35;100.00;98318.78;2606714;28;20076;-85
2023/06/02 05:31:22;;;;;;;10.70;5.97;;;;;;;13.35;100.00;98318.78;2605263;28;20076;-85
2023/06/02 05:32:39;;;;;;;10.43;5.75;;;;;;;13.47;100.00;98313.97;2605101;28;20351;-84
2023/06/02 05:33:54;;;;;;;10.38;5.20;;;;;;;13.78;100.00;98320.56;2607807;28;20055;-85
2023/06/02 05:35:10;;;;;;;4.20;2.78;;;;;;;13.58;100.00;98314.38;2605429;28;20413;-85
2023/06/02 05:36:26;;;;;;;10.32;5.63;;;;;;;13.56;100.00;98316.22;2605460;28;20508;-86
2023/06/02 05:37:42;;;;;;;7.97;3.65;;;;;;;13.48;100.00;98321.81;2605911;28;20049;-87
2023/06/02 05:38:59;;;;;;;10.18;5.50;;;;;;;13.60;100.00;98319.56;2604688;28;20041;-85
2023/06/02 05:40:15;;;;;;;8.23;4.72;;;;;;;13.65;100.00;98317.63;2605340;28;20125;-84
2023/06/02 05:41:31;;;;;;;3.42;2.30;;;;;;;13.47;100.00;98319.25;2607111;28;20068;-85
2023/06/02 05:42:47;;;;;;;7.22;4.78;;;;;;;13.42;100.00;98322.91;2605665;28;20040;-84
2023/06/02 05:44:02;;;;;;;8.13;4.55;;;;;;;13.72;100.00;98316.41;2606614;28;20085;-84
2023/06/02 05:45:18;;;;;;;11.63;4.57;;;;;;;13.85;100.00;98311.50;2605719;28;20048;-85
2023/06/02 05:46:33;;;;;;;5.90;3.30;;;;;;;13.76;100.00;98311.88;2606933;28;20049;-84
2023/06/02 05:47:49;;;;;;;14.60;4.97;;;;;;;13.72;100.00;98311.16;2606719;28;20294;-85
2023/06/02 05:49:05;;;;;;;10.88;4.55;;;;;;;13.87;100.00;98308.78;2607915;28;20053;-87
2023/06/02 05:50:20;;;;;;;10.88;4.97;;;;;;;14.15;100.00;98311.06;2607567;28;20044;-88
2023/06/02 05:51:36;;;;;;;11.32;4.82;;;;;;;14.36;100.00;98309.22;2594767;28;20608;-88
2023/06/02 05:52:51;;;;;;;10.98;5.40;;;;;;;14.69;100.00;98319.13;2588591;28;20042;-87
2023/06/02 05:54:08;;;;;;;7.85;4.78;;;;;;;14.48;100.00;98315.72;2598919;28;20049;-87
2023/06/02 05:55:24;;;;;;;10.88;5.18;;;;;;;14.59;100.00;98317.00;2604031;28;20050;-87
2023/06/02 05:56:40;;;;;;;13.45;4.82;;;;;;;14.45;100.00;98315.84;2612622;28;20451;-87